createdAt,value
2023-02-05T00:00:40.490Z,70
2023-02-05T00:01:47.092Z,70
2023-02-05T00:02:54.160Z,70
2023-02-05T00:04:01.260Z,70
2023-02-05T00:05:08.376Z,70
2023-02-05T00:06:15.581Z,70
2023-02-05T00:07:22.031Z,70
2023-02-05T00:08:29.161Z,70
2023-02-05T00:09:36.389Z,70
2023-02-05T00:10:43.329Z,70
2023-02-05T00:11:50.506Z,70
2023-02-05T00:12:57.077Z,70
2023-02-05T00:14:04.145Z,70
2023-02-05T00:15:11.428Z,70
2023-02-05T00:16:18.422Z,70
2023-02-05T00:17:25.494Z,70
2023-02-05T00:18:32.025Z,70
2023-02-05T00:19:39.146Z,70
2023-02-05T00:20:45.814Z,70
2023-02-05T00:21:53.426Z,70
2023-02-05T00:22:59.983Z,70
2023-02-05T00:24:07.054Z,70
2023-02-05T00:25:14.169Z,70
2023-02-05T00:26:21.369Z,70
2023-02-05T00:27:28.381Z,70
2023-02-05T00:28:34.987Z,70
2023-02-05T00:29:42.079Z,70
2023-02-05T00:30:49.394Z,70
2023-02-05T00:31:56.378Z,70
2023-02-05T00:33:03.388Z,70
2023-02-05T00:35:17.114Z,70
2023-02-05T00:36:24.175Z,70
2023-02-05T00:37:31.281Z,70
2023-02-05T00:38:38.424Z,71
2023-02-05T00:39:44.991Z,71
2023-02-05T00:41:59.231Z,71
2023-02-05T00:43:06.334Z,71
2023-02-05T00:44:13.424Z,70
2023-02-05T00:45:20.019Z,70
2023-02-05T00:46:27.547Z,70
2023-02-05T00:47:34.265Z,70
2023-02-05T00:48:41.310Z,70
2023-02-05T00:49:48.434Z,70
2023-02-05T00:50:54.964Z,70
2023-02-05T00:52:02.136Z,70
2023-02-05T00:53:09.298Z,70
2023-02-05T00:54:16.352Z,70
2023-02-05T00:55:23.428Z,71
2023-02-05T00:56:30.058Z,71
2023-02-05T00:57:37.129Z,71
2023-02-05T00:58:44.206Z,71
2023-02-05T00:59:51.360Z,71
2023-02-05T01:00:58.453Z,71
2023-02-05T01:02:05.051Z,71
2023-02-05T01:02:05.057Z,71
2023-02-05T01:03:12.201Z,71
2023-02-05T01:04:19.258Z,71
2023-02-05T01:05:26.341Z,71
2023-02-05T01:06:33.418Z,71
2023-02-05T01:07:40.047Z,71
2023-02-05T01:08:47.110Z,71
2023-02-05T01:09:54.228Z,71
2023-02-05T01:11:01.906Z,71
2023-02-05T01:13:17.536Z,71
2023-02-05T01:14:22.170Z,71
2023-02-05T01:15:29.228Z,71
2023-02-05T01:26:39.290Z,71
2023-02-05T01:27:46.507Z,71
2023-02-05T01:28:53.428Z,72
2023-02-05T01:30:00.113Z,72
2023-02-05T01:31:07.336Z,72
2023-02-05T01:32:14.245Z,72
2023-02-05T01:33:21.413Z,72
2023-02-05T01:34:28.001Z,72
2023-02-05T01:35:35.394Z,72
2023-02-05T01:36:42.203Z,72
2023-02-05T01:37:49.326Z,72
2023-02-05T01:38:56.379Z,72
2023-02-05T01:40:02.915Z,72
2023-02-05T01:41:10.081Z,72
2023-02-05T01:42:17.169Z,72
2023-02-05T01:43:23.754Z,72
2023-02-05T01:45:37.994Z,72
2023-02-05T01:46:45.069Z,72
2023-02-05T01:47:52.248Z,72
2023-02-05T01:48:59.296Z,72
2023-02-05T01:50:06.359Z,72
2023-02-05T01:51:12.996Z,72
2023-02-05T01:52:20.176Z,72
2023-02-05T01:53:27.220Z,72
2023-02-05T01:54:34.265Z,72
2023-02-05T01:55:41.429Z,72
2023-02-05T01:56:48.004Z,72
2023-02-05T01:57:55.098Z,72
2023-02-05T01:59:02.231Z,72
2023-02-05T02:00:09.330Z,72
2023-02-05T02:01:16.560Z,72
2023-02-05T02:03:30.151Z,72
2023-02-05T02:04:37.221Z,72
2023-02-05T02:05:44.275Z,72
2023-02-05T02:06:51.413Z,72
2023-02-05T02:07:57.997Z,72
2023-02-05T02:09:05.104Z,72
2023-02-05T02:10:15.247Z,72
2023-02-05T02:11:19.346Z,72
2023-02-05T02:12:26.584Z,72
2023-02-05T02:13:32.989Z,72
2023-02-05T02:14:40.154Z,72
2023-02-05T02:15:47.252Z,72
2023-02-05T02:16:54.311Z,72
2023-02-05T02:18:01.533Z,72
2023-02-05T02:19:08.015Z,72
2023-02-05T02:20:15.225Z,72
2023-02-05T02:21:22.219Z,72
2023-02-05T02:22:29.357Z,72
2023-02-05T02:23:36.427Z,72
2023-02-05T02:25:50.166Z,72
2023-02-05T02:26:57.229Z,72
2023-02-05T02:28:04.467Z,72
2023-02-05T02:29:11.471Z,72
2023-02-05T02:30:18.164Z,72
2023-02-05T02:31:25.197Z,72
2023-02-05T02:32:32.276Z,72
2023-02-05T02:33:39.383Z,73
2023-02-05T02:34:46.470Z,73
2023-02-05T02:35:53.030Z,73
2023-02-05T02:37:00.176Z,73
2023-02-05T02:38:07.310Z,73
2023-02-05T02:39:14.319Z,73
2023-02-05T02:40:21.492Z,73
2023-02-05T02:41:28.068Z,73
2023-02-05T02:42:35.255Z,73
2023-02-05T02:43:42.277Z,73
2023-02-05T02:44:49.376Z,73
2023-02-05T02:45:56.483Z,73
2023-02-05T02:47:03.060Z,73
2023-02-05T02:49:17.403Z,73
2023-02-05T02:50:24.369Z,73
2023-02-05T02:51:31.519Z,73
2023-02-05T02:52:38.196Z,73
2023-02-05T02:53:45.143Z,73
2023-02-05T02:54:52.238Z,73
2023-02-05T02:55:59.387Z,74
2023-02-05T02:57:06.511Z,74
2023-02-05T02:58:13.079Z,74
2023-02-05T02:59:20.171Z,74
2023-02-05T03:00:27.446Z,74
2023-02-05T03:01:34.404Z,74
2023-02-05T03:02:41.534Z,74
2023-02-05T03:03:48.127Z,74
2023-02-05T03:04:55.182Z,74
2023-02-05T03:06:01.801Z,74
2023-02-05T03:07:09.441Z,74
2023-02-05T03:08:16.586Z,74
2023-02-05T03:09:23.095Z,74
2023-02-05T03:10:30.193Z,74
2023-02-05T03:11:37.335Z,74
2023-02-05T03:12:44.429Z,74
2023-02-05T03:13:51.009Z,74
2023-02-05T03:14:58.105Z,74
2023-02-05T03:16:05.306Z,74
2023-02-05T03:17:12.289Z,74
2023-02-05T03:18:19.464Z,75
2023-02-05T03:19:26.552Z,75
2023-02-05T03:20:33.113Z,75
2023-02-05T03:21:40.235Z,75
2023-02-05T03:22:47.295Z,75
2023-02-05T03:23:54.420Z,75
2023-02-05T03:25:00.992Z,75
2023-02-05T03:26:08.093Z,75
2023-02-05T03:27:15.218Z,75
2023-02-05T03:28:22.335Z,75
2023-02-05T03:29:29.459Z,75
2023-02-05T03:31:43.179Z,75
2023-02-05T03:32:50.317Z,75
2023-02-05T03:33:57.353Z,75
2023-02-05T03:35:04.455Z,75
2023-02-05T03:36:11.012Z,75
2023-02-05T03:37:18.262Z,76
2023-02-05T03:38:25.199Z,76
2023-02-05T03:39:32.305Z,76
2023-02-05T03:40:39.485Z,76
2023-02-05T03:41:46.036Z,76
2023-02-05T03:42:53.208Z,76
2023-02-05T03:44:00.262Z,76
2023-02-05T03:45:07.344Z,76
2023-02-05T03:46:14.485Z,76
2023-02-05T03:48:28.300Z,76
2023-02-05T03:49:35.209Z,76
2023-02-05T03:50:42.314Z,76
2023-02-05T03:52:56.135Z,76
2023-02-05T03:54:03.136Z,76
2023-02-05T03:55:10.288Z,76
2023-02-05T03:56:17.377Z,77
2023-02-05T03:57:24.513Z,77
2023-02-05T03:58:31.117Z,77
2023-02-05T03:59:38.184Z,77
2023-02-05T04:00:45.337Z,77
2023-02-05T04:01:52.361Z,77
2023-02-05T04:02:59.539Z,77
2023-02-05T04:04:06.102Z,77
2023-02-05T04:05:13.144Z,77
2023-02-05T04:06:20.253Z,78
2023-02-05T04:07:27.442Z,78
2023-02-05T04:08:34.443Z,78
2023-02-05T04:09:41.096Z,78
2023-02-05T04:10:48.128Z,78
2023-02-05T04:11:55.273Z,78
2023-02-05T04:13:02.391Z,78
2023-02-05T04:14:09.488Z,78
2023-02-05T04:15:16.043Z,78
2023-02-05T04:16:23.268Z,78
2023-02-05T04:17:30.383Z,78
2023-02-05T04:18:37.398Z,78
2023-02-05T04:19:44.465Z,78
2023-02-05T04:20:51.127Z,78
2023-02-05T04:21:58.225Z,78
2023-02-05T04:23:05.264Z,78
2023-02-05T04:24:12.396Z,78
2023-02-05T04:25:19.488Z,78
2023-02-05T04:26:26.114Z,78
2023-02-05T04:27:33.242Z,78
2023-02-05T04:29:47.397Z,78
2023-02-05T04:30:54.543Z,78
2023-02-05T04:32:01.065Z,78
2023-02-05T04:33:08.264Z,78
2023-02-05T04:34:15.268Z,78
2023-02-05T04:35:22.427Z,78
2023-02-05T04:36:29.473Z,78
2023-02-05T04:37:36.108Z,78
2023-02-05T04:38:43.188Z,79
2023-02-05T04:39:50.331Z,78
2023-02-05T04:40:57.446Z,79
2023-02-05T04:42:04.479Z,79
2023-02-05T04:43:11.212Z,79
2023-02-05T04:44:18.239Z,79
2023-02-05T04:45:25.311Z,79
2023-02-05T04:46:32.420Z,79
2023-02-05T04:47:39.699Z,79
2023-02-05T04:48:46.146Z,79
2023-02-05T04:49:53.222Z,79
2023-02-05T04:51:00.351Z,79
2023-02-05T04:52:07.469Z,79
2023-02-05T04:53:14.045Z,79
2023-02-05T04:54:21.119Z,79
2023-02-05T04:56:35.313Z,79
2023-02-05T04:57:42.526Z,79
2023-02-05T04:58:49.056Z,79
2023-02-05T04:59:56.132Z,79
2023-02-05T05:01:03.263Z,79
2023-02-05T05:02:10.409Z,79
2023-02-05T05:03:17.450Z,79
2023-02-05T05:04:24.038Z,79
2023-02-05T05:05:31.364Z,79
2023-02-05T05:06:38.282Z,79
2023-02-05T05:07:45.428Z,79
2023-02-05T05:08:52.459Z,79
2023-02-05T05:11:06.198Z,79
2023-02-05T05:12:13.258Z,79
2023-02-05T05:13:20.414Z,79
2023-02-05T05:14:27.490Z,79
2023-02-05T05:15:34.285Z,79
2023-02-05T05:16:41.185Z,79
2023-02-05T05:17:48.354Z,78
2023-02-05T05:18:55.379Z,78
2023-02-05T05:20:02.481Z,78
2023-02-05T05:21:09.055Z,78
2023-02-05T05:22:16.128Z,78
2023-02-05T05:23:23.330Z,78
2023-02-05T05:24:30.516Z,77
2023-02-05T05:25:37.464Z,77
2023-02-05T05:26:44.025Z,77
2023-02-05T05:27:51.198Z,77
2023-02-05T05:28:58.317Z,77
2023-02-05T05:30:05.343Z,77
2023-02-05T05:31:12.554Z,77
2023-02-05T05:32:19.215Z,77
2023-02-05T05:33:26.262Z,77
2023-02-05T05:34:33.243Z,77
2023-02-05T05:36:47.537Z,77
2023-02-05T05:37:54.035Z,77
2023-02-05T05:39:01.148Z,77
2023-02-05T05:40:08.325Z,77
2023-02-05T05:41:15.381Z,77
2023-02-05T05:42:22.495Z,77
2023-02-05T05:43:29.180Z,77
2023-02-05T05:44:36.210Z,77
2023-02-05T05:45:43.342Z,77
2023-02-05T05:46:50.438Z,77
2023-02-05T05:47:57.540Z,77
2023-02-05T05:49:04.098Z,77
2023-02-05T05:50:11.252Z,77
2023-02-05T05:52:25.369Z,77
2023-02-05T05:53:32.578Z,77
2023-02-05T05:54:39.113Z,76
2023-02-05T05:55:46.251Z,76
2023-02-05T05:56:53.278Z,76
2023-02-05T05:58:00.478Z,76
2023-02-05T06:00:15.330Z,76
2023-02-05T06:01:21.308Z,76
2023-02-05T06:02:28.397Z,75
2023-02-05T06:03:35.387Z,75
2023-02-05T06:04:42.536Z,75
2023-02-05T06:05:49.159Z,75
2023-02-05T06:06:56.227Z,75
2023-02-05T06:08:03.374Z,75
2023-02-05T06:09:10.454Z,75
2023-02-05T06:10:17.058Z,75
2023-02-05T06:11:24.127Z,75
2023-02-05T06:12:31.278Z,75
2023-02-05T06:13:38.328Z,75
2023-02-05T06:14:45.447Z,75
2023-02-05T06:15:52.160Z,75
2023-02-05T06:16:59.165Z,75
2023-02-05T06:18:06.302Z,74
2023-02-05T06:19:13.336Z,74
2023-02-05T06:20:20.485Z,74
2023-02-05T06:21:27.582Z,74
2023-02-05T06:22:34.140Z,74
2023-02-05T06:23:41.285Z,74
2023-02-05T06:24:48.352Z,74
2023-02-05T06:25:55.445Z,74
2023-02-05T06:27:02.136Z,74
2023-02-05T06:28:09.205Z,74
2023-02-05T06:29:16.250Z,74
2023-02-05T06:30:23.333Z,74
2023-02-05T06:31:30.738Z,74
2023-02-05T06:33:44.202Z,73
2023-02-05T06:34:51.297Z,73
2023-02-05T06:35:58.376Z,73
2023-02-05T06:37:05.464Z,73
2023-02-05T06:38:12.068Z,73
2023-02-05T06:39:19.159Z,73
2023-02-05T06:40:26.275Z,73
2023-02-05T06:41:33.356Z,73
2023-02-05T06:42:40.559Z,73
2023-02-05T06:43:47.090Z,73
2023-02-05T06:44:54.164Z,73
2023-02-05T06:46:01.366Z,73
2023-02-05T06:47:08.396Z,73
2023-02-05T06:48:15.516Z,73
2023-02-05T06:49:22.065Z,73
2023-02-05T06:50:29.195Z,73
2023-02-05T06:51:36.324Z,72
2023-02-05T06:52:43.431Z,72
2023-02-05T06:53:50.486Z,72
2023-02-05T06:54:57.076Z,72
2023-02-05T06:56:04.140Z,72
2023-02-05T06:57:11.326Z,72
2023-02-05T06:58:18.473Z,72
2023-02-05T06:59:25.495Z,72
2023-02-05T07:00:32.604Z,73
2023-02-05T07:01:39.262Z,72
2023-02-05T07:05:00.538Z,72
2023-02-05T07:06:07.141Z,72
2023-02-05T07:07:14.207Z,73
2023-02-05T07:08:21.342Z,72
2023-02-05T07:09:28.396Z,73
2023-02-05T07:10:35.510Z,73
2023-02-05T07:11:42.107Z,73
2023-02-05T07:12:49.252Z,73
2023-02-05T07:13:55.793Z,72
2023-02-05T07:15:03.442Z,73
2023-02-05T07:16:10.630Z,73
2023-02-05T07:17:17.140Z,73
2023-02-05T07:18:24.275Z,73
2023-02-05T07:19:31.341Z,73
2023-02-05T07:20:38.447Z,73
2023-02-05T07:21:45.540Z,73
2023-02-05T07:22:52.156Z,73
2023-02-05T07:23:59.233Z,73
2023-02-05T07:25:06.490Z,73
2023-02-05T07:26:13.417Z,73
2023-02-05T07:27:20.553Z,73
2023-02-05T07:28:27.194Z,73
2023-02-05T07:29:34.198Z,73
2023-02-05T07:30:41.364Z,73
2023-02-05T07:31:48.556Z,73
2023-02-05T07:32:55.080Z,73
2023-02-05T07:34:02.175Z,73
2023-02-05T07:35:09.287Z,73
2023-02-05T07:36:16.390Z,73
2023-02-05T07:37:23.452Z,73
2023-02-05T07:38:30.122Z,73
2023-02-05T07:39:37.141Z,73
2023-02-05T07:40:44.237Z,73
2023-02-05T07:41:51.386Z,73
2023-02-05T07:42:58.525Z,73
2023-02-05T07:44:05.047Z,73
2023-02-05T07:45:12.168Z,73
2023-02-05T07:46:19.298Z,73
2023-02-05T07:47:26.412Z,73
2023-02-05T07:48:33.447Z,73
2023-02-05T07:49:40.077Z,73
2023-02-05T07:50:47.296Z,73
2023-02-05T07:51:54.287Z,73
2023-02-05T07:53:01.452Z,73
2023-02-05T07:54:08.492Z,73
2023-02-05T07:56:22.207Z,73
2023-02-05T07:57:29.283Z,72
2023-02-05T07:58:36.429Z,72
2023-02-05T07:59:43.479Z,72
2023-02-05T08:00:50.098Z,72
2023-02-05T08:01:57.264Z,72
2023-02-05T08:03:04.259Z,72
2023-02-05T08:04:11.493Z,72
2023-02-05T08:05:18.470Z,72
2023-02-05T08:07:32.187Z,72
2023-02-05T08:08:39.359Z,72
2023-02-05T08:09:46.430Z,72
2023-02-05T08:10:53.515Z,72
2023-02-05T08:12:00.149Z,72
2023-02-05T08:13:07.212Z,72
2023-02-05T08:14:14.289Z,72
2023-02-05T08:15:21.429Z,72
2023-02-05T08:16:28.523Z,72
2023-02-05T08:17:35.057Z,72
2023-02-05T08:18:42.261Z,72
2023-02-05T08:19:49.331Z,72
2023-02-05T08:20:56.391Z,72
2023-02-05T08:22:03.520Z,72
2023-02-05T08:23:10.136Z,72
2023-02-05T08:24:17.195Z,72
2023-02-05T08:25:24.301Z,72
2023-02-05T08:26:31.404Z,72
2023-02-05T08:27:38.512Z,72
2023-02-05T08:28:45.187Z,72
2023-02-05T08:29:52.215Z,72
2023-02-05T08:30:59.422Z,72
2023-02-05T08:33:13.600Z,73
2023-02-05T08:34:20.960Z,73
2023-02-05T08:35:27.250Z,73
2023-02-05T08:36:33.807Z,73
2023-02-05T08:37:41.421Z,73
2023-02-05T08:38:48.558Z,73
2023-02-05T08:39:55.133Z,73
2023-02-05T08:41:02.237Z,73
2023-02-05T08:42:09.353Z,73
2023-02-05T08:43:16.486Z,74
2023-02-05T08:44:23.544Z,74
2023-02-05T08:45:30.227Z,74
2023-02-05T08:46:48.849Z,74
2023-02-05T08:47:44.307Z,74
2023-02-05T08:48:51.485Z,74
2023-02-05T08:49:58.685Z,74
2023-02-05T08:51:05.117Z,74
2023-02-05T08:52:12.262Z,74
2023-02-05T08:53:19.430Z,75
2023-02-05T08:54:26.440Z,75
2023-02-05T08:55:33.954Z,75
2023-02-05T08:56:40.124Z,75
2023-02-05T08:57:47.242Z,75
2023-02-05T08:58:54.375Z,75
2023-02-05T09:00:01.508Z,75
2023-02-05T09:01:08.673Z,75
2023-02-05T09:02:15.120Z,75
2023-02-05T09:03:22.240Z,75
2023-02-05T09:04:29.414Z,75
2023-02-05T09:05:36.658Z,76
2023-02-05T09:06:43.060Z,76
2023-02-05T09:07:50.153Z,76
2023-02-05T09:08:57.308Z,76
2023-02-05T09:11:11.505Z,76
2023-02-05T09:12:18.094Z,76
2023-02-05T09:13:25.264Z,76
2023-02-05T09:14:32.277Z,76
2023-02-05T09:15:39.459Z,76
2023-02-05T09:16:46.488Z,76
2023-02-05T09:17:53.100Z,76
2023-02-05T09:19:00.140Z,76
2023-02-05T09:20:07.263Z,76
2023-02-05T09:21:14.343Z,76
2023-02-05T09:22:21.517Z,76
2023-02-05T09:23:28.164Z,76
2023-02-05T09:24:35.140Z,76
2023-02-05T09:25:42.248Z,76
2023-02-05T09:26:49.603Z,77
2023-02-05T09:27:56.554Z,77
2023-02-05T09:29:03.042Z,77
2023-02-05T09:30:10.150Z,77
2023-02-05T09:31:17.440Z,77
2023-02-05T09:32:24.382Z,77
2023-02-05T09:33:31.583Z,77
2023-02-05T09:34:38.089Z,77
2023-02-05T09:35:45.175Z,77
2023-02-05T09:36:52.294Z,77
2023-02-05T09:37:59.453Z,77
2023-02-05T09:39:17.448Z,77
2023-02-05T09:40:20.839Z,77
2023-02-05T09:41:20.168Z,77
2023-02-05T09:42:27.393Z,77
2023-02-05T09:43:34.466Z,77
2023-02-05T09:44:41.521Z,77
2023-02-05T09:45:48.179Z,78
2023-02-05T09:46:55.210Z,78
2023-02-05T09:48:02.382Z,78
2023-02-05T09:49:09.457Z,77
2023-02-05T09:50:16.513Z,77
2023-02-05T09:51:23.086Z,77
2023-02-05T09:52:30.217Z,77
2023-02-05T09:53:37.346Z,77
2023-02-05T09:54:44.392Z,76
2023-02-05T09:55:51.559Z,76
2023-02-05T09:56:58.149Z,76
2023-02-05T09:58:05.286Z,76
2023-02-05T09:59:12.348Z,76
2023-02-05T10:01:26.608Z,76
2023-02-05T10:02:33.147Z,76
2023-02-05T10:03:40.341Z,75
2023-02-05T10:04:47.332Z,75
2023-02-05T10:05:54.452Z,75
2023-02-05T10:07:01.581Z,75
2023-02-05T10:08:08.117Z,75
2023-02-05T10:09:15.244Z,75
2023-02-05T10:10:22.448Z,75
2023-02-05T10:11:29.484Z,75
2023-02-05T10:12:36.609Z,75
2023-02-05T10:14:50.336Z,75
2023-02-05T10:15:57.474Z,75
2023-02-05T10:17:04.478Z,75
2023-02-05T10:18:11.607Z,75
2023-02-05T10:19:18.180Z,75
2023-02-05T10:20:25.290Z,75
2023-02-05T10:21:32.360Z,75
2023-02-05T10:22:39.466Z,75
2023-02-05T10:23:46.565Z,75
2023-02-05T10:24:53.123Z,75
2023-02-05T10:26:00.298Z,75
2023-02-05T10:27:07.418Z,75
2023-02-05T10:28:14.570Z,75
2023-02-05T10:29:21.575Z,75
2023-02-05T10:30:28.212Z,75
2023-02-05T10:31:36.785Z,75
2023-02-05T10:32:42.361Z,75
2023-02-05T10:33:49.484Z,75
2023-02-05T10:34:56.649Z,75
2023-02-05T10:36:03.161Z,75
2023-02-05T10:37:10.308Z,76
2023-02-05T10:38:17.476Z,75
2023-02-05T10:39:24.479Z,75
2023-02-05T10:40:31.111Z,75
2023-02-05T10:41:38.226Z,76
2023-02-05T10:42:45.296Z,76
2023-02-05T10:43:52.520Z,76
2023-02-05T10:44:59.564Z,76
2023-02-05T10:46:06.138Z,76
2023-02-05T10:47:13.146Z,76
2023-02-05T10:48:20.364Z,76
2023-02-05T10:49:27.440Z,76
2023-02-05T10:50:34.774Z,76
2023-02-05T10:51:41.093Z,76
2023-02-05T10:52:48.358Z,76
2023-02-05T10:53:55.342Z,76
2023-02-05T10:55:02.428Z,76
2023-02-05T10:56:09.521Z,76
2023-02-05T10:57:16.111Z,76
2023-02-05T10:58:23.159Z,76
2023-02-05T10:59:30.364Z,76
2023-02-05T11:00:37.738Z,76
2023-02-05T11:01:44.513Z,76
2023-02-05T11:02:51.192Z,76
2023-02-05T11:03:58.273Z,76
2023-02-05T11:05:05.279Z,76
2023-02-05T11:06:12.438Z,76
2023-02-05T11:07:19.545Z,76
2023-02-05T11:08:26.180Z,76
2023-02-05T11:09:33.185Z,76
2023-02-05T11:10:40.339Z,76
2023-02-05T11:11:47.460Z,76
2023-02-05T11:12:54.536Z,76
2023-02-05T11:14:01.078Z,76
2023-02-05T11:15:08.255Z,76
2023-02-05T11:16:15.340Z,76
2023-02-05T11:18:29.583Z,75
2023-02-05T11:19:36.085Z,75
2023-02-05T11:20:43.222Z,75
2023-02-05T11:21:49.820Z,75
2023-02-05T11:21:50.326Z,75
2023-02-05T11:22:57.498Z,74
2023-02-05T11:24:04.611Z,74
2023-02-05T11:25:11.176Z,74
2023-02-05T11:26:18.266Z,74
2023-02-05T11:27:25.357Z,73
2023-02-05T11:29:39.585Z,73
2023-02-05T11:30:52.115Z,73
2023-02-05T11:31:53.308Z,73
2023-02-05T11:33:00.431Z,73
2023-02-05T11:34:07.582Z,73
2023-02-05T11:35:14.559Z,72
2023-02-05T11:36:21.139Z,72
2023-02-05T11:37:28.219Z,72
2023-02-05T11:38:35.338Z,72
2023-02-05T11:39:42.424Z,72
2023-02-05T11:40:49.597Z,71
2023-02-05T11:41:56.292Z,71
2023-02-05T11:43:03.266Z,71
2023-02-05T11:44:10.405Z,71
2023-02-05T11:45:17.473Z,71
2023-02-05T11:46:24.641Z,71
2023-02-05T11:47:31.167Z,71
2023-02-05T11:48:38.310Z,71
2023-02-05T11:49:45.416Z,71
2023-02-05T11:50:52.486Z,71
2023-02-05T11:51:59.613Z,71
2023-02-05T11:53:06.194Z,71
2023-02-05T11:54:13.268Z,71
2023-02-05T11:55:20.386Z,71
2023-02-05T11:56:27.472Z,71
2023-02-05T11:57:34.609Z,71
2023-02-05T11:58:41.270Z,72
2023-02-05T11:59:48.314Z,72
2023-02-05T12:00:55.408Z,71
2023-02-05T12:02:02.537Z,71
2023-02-05T12:03:09.189Z,71
2023-02-05T12:04:16.225Z,71
2023-02-05T12:05:23.292Z,71
2023-02-05T12:06:30.438Z,71
2023-02-05T12:07:37.555Z,71
2023-02-05T12:08:44.068Z,71
2023-02-05T12:09:51.227Z,71
2023-02-05T12:10:58.315Z,71
2023-02-05T12:12:05.413Z,71
2023-02-05T12:13:12.578Z,71
2023-02-05T12:14:19.162Z,71
2023-02-05T12:15:26.210Z,71
2023-02-05T12:16:33.374Z,71
2023-02-05T12:17:40.462Z,70
2023-02-05T12:18:47.598Z,70
2023-02-05T12:19:54.103Z,70
2023-02-05T12:22:08.317Z,70
2023-02-05T12:23:15.437Z,70
2023-02-05T12:24:22.537Z,70
2023-02-05T12:25:29.152Z,70
2023-02-05T12:26:36.241Z,70
2023-02-05T12:27:43.336Z,70
2023-02-05T12:28:50.514Z,70
2023-02-05T12:29:57.683Z,70
2023-02-05T12:31:04.137Z,70
2023-02-05T12:32:11.248Z,70
2023-02-05T12:33:18.295Z,70
2023-02-05T12:34:25.440Z,70
2023-02-05T12:35:32.800Z,70
2023-02-05T12:36:39.139Z,70
2023-02-05T12:37:46.268Z,70
2023-02-05T12:38:53.409Z,70
2023-02-05T12:40:00.435Z,70
2023-02-05T12:41:07.568Z,69
2023-02-05T12:42:14.097Z,69
2023-02-05T12:43:21.337Z,69
2023-02-05T12:44:28.301Z,69
2023-02-05T12:45:35.736Z,69
2023-02-05T12:46:42.562Z,69
2023-02-05T12:47:49.168Z,69
2023-02-05T12:48:56.288Z,69
2023-02-05T12:50:03.346Z,69
2023-02-05T12:51:10.475Z,69
2023-02-05T12:52:17.598Z,69
2023-02-05T12:53:24.169Z,69
2023-02-05T12:54:31.287Z,69
2023-02-05T12:55:38.365Z,69
2023-02-05T12:57:52.592Z,69
2023-02-05T12:58:59.207Z,69
2023-02-05T13:00:06.318Z,69
2023-02-05T13:01:13.441Z,69
2023-02-05T13:02:19.984Z,69
2023-02-05T13:03:27.656Z,69
2023-02-05T13:04:34.212Z,69
2023-02-05T13:05:41.284Z,69
2023-02-05T13:06:48.429Z,69
2023-02-05T13:07:55.453Z,69
2023-02-05T13:09:02.653Z,69
2023-02-05T13:10:09.172Z,69
2023-02-05T13:11:16.298Z,69
2023-02-05T13:12:23.389Z,69
2023-02-05T13:13:30.478Z,69
2023-02-05T13:14:37.102Z,69
2023-02-05T13:15:44.206Z,70
2023-02-05T13:16:51.356Z,70
2023-02-05T13:17:58.429Z,70
2023-02-05T13:19:05.555Z,70
2023-02-05T13:20:15.477Z,70
2023-02-05T13:21:19.308Z,70
2023-02-05T13:22:28.130Z,69
2023-02-05T13:23:33.400Z,69
2023-02-05T13:25:47.107Z,70
2023-02-05T13:26:54.175Z,70
2023-02-05T13:28:01.324Z,69
2023-02-05T13:29:08.464Z,69
2023-02-05T13:30:15.661Z,69
2023-02-05T13:31:22.258Z,69
2023-02-05T13:32:29.377Z,68
2023-02-05T13:33:36.346Z,68
2023-02-05T13:34:43.439Z,68
2023-02-05T13:35:50.532Z,68
2023-02-05T13:36:57.211Z,68
2023-02-05T13:38:04.219Z,68
2023-02-05T13:39:11.414Z,68
2023-02-05T13:40:18.381Z,68
2023-02-05T13:41:25.513Z,68
2023-02-05T13:42:32.140Z,68
2023-02-05T13:43:39.290Z,68
2023-02-05T13:44:46.315Z,68
2023-02-05T13:45:53.489Z,68
2023-02-05T13:47:00.553Z,68
2023-02-05T13:48:07.149Z,69
2023-02-05T13:49:14.196Z,69
2023-02-05T13:50:21.366Z,69
2023-02-05T13:51:28.436Z,68
2023-02-05T13:52:35.500Z,68
2023-02-05T13:53:42.162Z,68
2023-02-05T13:54:49.272Z,68
2023-02-05T13:55:56.340Z,68
2023-02-05T13:57:03.460Z,68
2023-02-05T13:58:10.570Z,68
2023-02-05T13:59:17.119Z,68
2023-02-05T14:00:24.215Z,68
2023-02-05T14:01:31.469Z,68
2023-02-05T14:02:38.472Z,68
2023-02-05T14:03:45.599Z,68
2023-02-05T14:04:52.176Z,68
2023-02-05T14:05:59.282Z,68
2023-02-05T14:07:06.416Z,68
2023-02-05T14:08:13.469Z,68
2023-02-05T14:09:20.576Z,68
2023-02-05T14:10:27.193Z,68
2023-02-05T14:11:34.263Z,68
2023-02-05T14:12:41.356Z,68
2023-02-05T14:13:48.506Z,68
2023-02-05T14:14:55.548Z,68
2023-02-05T14:16:02.310Z,68
2023-02-05T14:17:09.289Z,68
2023-02-05T14:18:16.416Z,68
2023-02-05T14:19:23.465Z,68
2023-02-05T14:20:30.717Z,68
2023-02-05T14:21:37.165Z,68
2023-02-05T14:22:44.271Z,68
2023-02-05T14:23:51.388Z,68
2023-02-05T14:26:05.560Z,68
2023-02-05T14:27:12.167Z,68
2023-02-05T14:29:26.436Z,67
2023-02-05T14:30:33.527Z,67
2023-02-05T14:31:40.693Z,67
2023-02-05T14:32:47.203Z,67
2023-02-05T14:33:54.293Z,67
2023-02-05T14:35:01.406Z,67
2023-02-05T14:36:08.536Z,67
2023-02-05T14:37:15.582Z,67
2023-02-05T14:38:22.265Z,67
2023-02-05T14:39:29.315Z,67
2023-02-05T14:40:36.423Z,66
2023-02-05T14:41:43.529Z,66
2023-02-05T14:42:50.918Z,66
2023-02-05T14:43:57.313Z,66
2023-02-05T14:45:04.307Z,66
2023-02-05T14:46:11.543Z,66
2023-02-05T14:47:18.543Z,66
2023-02-05T14:48:25.154Z,65
2023-02-05T14:49:32.218Z,65
2023-02-05T14:50:39.367Z,65
2023-02-05T14:51:46.447Z,65
2023-02-05T14:52:54.115Z,65
2023-02-05T14:54:00.209Z,65
2023-02-05T14:55:07.209Z,65
2023-02-05T14:56:14.296Z,65
2023-02-05T14:57:21.481Z,65
2023-02-05T14:58:28.515Z,65
2023-02-05T14:59:35.093Z,64
2023-02-05T15:00:42.221Z,65
2023-02-05T15:01:49.380Z,64
2023-02-05T15:02:56.529Z,64
2023-02-05T15:04:03.596Z,64
2023-02-05T15:05:10.140Z,64
2023-02-05T15:06:17.251Z,65
2023-02-05T15:07:24.327Z,65
2023-02-05T15:08:31.516Z,65
2023-02-05T15:09:38.564Z,65
2023-02-05T15:10:45.085Z,65
2023-02-05T15:11:52.230Z,65
2023-02-05T15:12:59.388Z,65
2023-02-05T15:14:06.485Z,65
2023-02-05T15:15:13.565Z,65
2023-02-05T15:16:20.170Z,65
2023-02-05T15:17:27.232Z,64
2023-02-05T15:18:34.379Z,65
2023-02-05T15:19:41.490Z,65
2023-02-05T15:20:48.574Z,65
2023-02-05T15:21:55.127Z,65
2023-02-05T15:23:02.395Z,65
2023-02-05T15:24:09.380Z,65
2023-02-05T15:25:16.494Z,65
2023-02-05T15:26:23.528Z,64
2023-02-05T15:27:30.200Z,64
2023-02-05T15:28:37.344Z,64
2023-02-05T15:29:44.360Z,64
2023-02-05T15:30:51.626Z,64
2023-02-05T15:33:05.201Z,64
2023-02-05T15:34:12.271Z,64
2023-02-05T15:35:19.413Z,64
2023-02-05T15:36:26.499Z,64
2023-02-05T15:37:33.592Z,64
2023-02-05T15:38:40.233Z,64
2023-02-05T15:39:47.269Z,64
2023-02-05T15:40:54.397Z,63
2023-02-05T15:42:01.541Z,63
2023-02-05T15:43:08.633Z,63
2023-02-05T15:44:15.208Z,63
2023-02-05T15:45:22.298Z,62
2023-02-05T15:46:29.558Z,62
2023-02-05T15:47:36.065Z,62
2023-02-05T15:48:43.633Z,62
2023-02-05T15:49:50.245Z,62
2023-02-05T15:50:58.366Z,61
2023-02-05T15:52:04.381Z,61
2023-02-05T15:54:18.707Z,61
2023-02-05T15:55:25.175Z,61
2023-02-05T15:56:32.286Z,61
2023-02-05T15:57:39.432Z,61
2023-02-05T15:58:46.494Z,61
2023-02-05T15:59:53.667Z,60
2023-02-05T16:01:00.203Z,60
2023-02-05T16:02:07.296Z,60
2023-02-05T16:03:14.421Z,61
2023-02-05T16:04:21.609Z,61
2023-02-05T16:05:28.594Z,61
2023-02-05T16:06:35.201Z,61
2023-02-05T16:07:42.322Z,61
2023-02-05T16:08:49.439Z,61
2023-02-05T16:09:56.614Z,61
2023-02-05T16:11:03.602Z,61
2023-02-05T16:12:10.268Z,61
2023-02-05T16:13:17.322Z,61
2023-02-05T16:14:24.476Z,60
2023-02-05T16:15:31.570Z,61
2023-02-05T16:16:38.641Z,61
2023-02-05T16:17:45.242Z,61
2023-02-05T16:18:52.377Z,61
2023-02-05T16:19:59.440Z,60
2023-02-05T16:21:06.622Z,60
2023-02-05T16:22:13.122Z,60
2023-02-05T16:23:20.266Z,60
2023-02-05T16:24:27.301Z,60
2023-02-05T16:25:34.804Z,60
2023-02-05T16:26:41.585Z,60
2023-02-05T16:27:48.224Z,60
2023-02-05T16:28:55.266Z,60
2023-02-05T16:30:02.342Z,60
2023-02-05T16:31:09.584Z,60
2023-02-05T16:32:16.606Z,60
2023-02-05T16:33:23.165Z,61
2023-02-05T16:34:30.277Z,61
2023-02-05T16:36:44.439Z,61
2023-02-05T16:37:51.598Z,62
2023-02-05T16:38:58.182Z,62
2023-02-05T16:40:05.220Z,62
2023-02-05T16:41:12.349Z,62
2023-02-05T16:42:19.505Z,62